createdAt,value
2018-03-20T00:00:14.944Z,-0.24
2018-03-20T00:01:14.956Z,-0.26
2018-03-20T00:02:14.991Z,-0.24
2018-03-20T00:03:15.034Z,-0.30
2018-03-20T00:04:15.068Z,-0.33
2018-03-20T00:05:15.142Z,-0.24
2018-03-20T00:06:15.152Z,-0.33
2018-03-20T00:07:15.186Z,-0.33
2018-03-20T00:08:15.227Z,-0.31
2018-03-20T00:09:15.266Z,-0.39
2018-03-20T00:10:15.345Z,-0.29
2018-03-20T00:11:15.342Z,-0.30
2018-03-20T00:12:15.381Z,-0.29
2018-03-20T00:13:15.419Z,-0.31
2018-03-20T00:14:15.461Z,-0.31
2018-03-20T00:15:15.535Z,-0.37
2018-03-20T00:16:15.540Z,-0.36
2018-03-20T00:17:15.575Z,-0.29
2018-03-20T00:18:15.613Z,-0.31
2018-03-20T00:19:15.662Z,-0.31
2018-03-20T00:20:15.726Z,-0.36
2018-03-20T00:21:15.732Z,-0.29
2018-03-20T00:22:15.771Z,-0.36
2018-03-20T00:23:15.809Z,-0.34
2018-03-20T00:24:15.846Z,-0.34
2018-03-20T00:25:15.910Z,-0.37
2018-03-20T00:26:15.926Z,-0.34
2018-03-20T00:27:15.965Z,-0.33
2018-03-20T00:28:16.003Z,-0.33
2018-03-20T00:29:16.042Z,-0.36
2018-03-20T00:30:16.112Z,-0.34
2018-03-20T00:31:16.121Z,-0.36
2018-03-20T00:32:16.161Z,-0.31
2018-03-20T00:33:16.203Z,-0.31
2018-03-20T00:34:16.236Z,-0.33
2018-03-20T00:35:16.308Z,-0.33
2018-03-20T00:36:16.313Z,-0.33
2018-03-20T00:37:16.352Z,-0.36
2018-03-20T00:38:16.392Z,-0.36
2018-03-20T00:39:16.430Z,-0.29
2018-03-20T00:40:16.810Z,-0.30
2018-03-20T00:41:16.506Z,-0.39
2018-03-20T00:42:16.549Z,-0.33
2018-03-20T00:43:16.589Z,-0.30
2018-03-20T00:44:16.624Z,-0.30
2018-03-20T00:45:16.662Z,-0.42
2018-03-20T00:46:16.725Z,-0.39
2018-03-20T00:47:16.774Z,-0.45
2018-03-20T00:48:16.780Z,-0.44
2018-03-20T00:49:16.818Z,-0.42
2018-03-20T00:50:16.856Z,-0.47
2018-03-20T00:51:16.940Z,-0.42
2018-03-20T00:52:16.966Z,-0.47
2018-03-20T00:53:16.974Z,-0.45
2018-03-20T00:54:17.013Z,-0.47
2018-03-20T00:55:17.050Z,-0.30
2018-03-20T00:56:17.090Z,-0.30
2018-03-20T00:57:17.172Z,-0.34
2018-03-20T00:58:17.168Z,-0.27
2018-03-20T00:59:17.206Z,-0.36
2018-03-20T01:00:17.245Z,-0.33
2018-03-20T01:01:17.284Z,-0.45
2018-03-20T01:02:17.356Z,-0.44
2018-03-20T01:03:17.362Z,-0.42
2018-03-20T01:04:17.404Z,-0.45
2018-03-20T01:05:17.440Z,-0.45
2018-03-20T01:06:17.479Z,-0.45
2018-03-20T01:07:17.549Z,-0.50
2018-03-20T01:08:17.556Z,-0.47
2018-03-20T01:09:17.595Z,-0.45
2018-03-20T01:10:17.636Z,-0.51
2018-03-20T01:11:17.672Z,-0.52
2018-03-20T01:12:17.758Z,-0.54
2018-03-20T01:13:17.749Z,-0.41
2018-03-20T01:14:17.798Z,-0.42
2018-03-20T01:15:17.825Z,-0.51
2018-03-20T01:16:17.874Z,-0.48
2018-03-20T01:17:18.457Z,-0.48
2018-03-20T01:18:17.943Z,-0.41
2018-03-20T01:19:17.982Z,-0.47
2018-03-20T01:20:18.023Z,-0.44
2018-03-20T01:21:18.061Z,-0.52
2018-03-20T01:22:18.123Z,-0.52
2018-03-20T01:23:18.137Z,-0.54
2018-03-20T01:24:18.200Z,-0.44
2018-03-20T01:25:18.232Z,-0.45
2018-03-20T01:26:18.264Z,-0.59
2018-03-20T01:27:18.294Z,-0.47
2018-03-20T01:28:18.354Z,-0.50
2018-03-20T01:29:18.410Z,-0.52
2018-03-20T01:30:18.409Z,-0.59
2018-03-20T01:31:18.450Z,-0.51
2018-03-20T01:32:18.489Z,-0.44
2018-03-20T01:33:18.527Z,-0.48
2018-03-20T01:34:18.586Z,-0.48
2018-03-20T01:35:18.601Z,-0.51
2018-03-20T01:36:18.640Z,-0.47
2018-03-20T01:37:18.685Z,-0.52
2018-03-20T01:38:18.717Z,-0.50
2018-03-20T01:39:18.781Z,-0.54
2018-03-20T01:40:18.817Z,-0.52
2018-03-20T01:41:18.836Z,-0.66
2018-03-20T01:42:18.874Z,-0.60
2018-03-20T01:43:18.912Z,-0.57
2018-03-20T01:44:18.948Z,-0.66
2018-03-20T01:45:19.034Z,-0.72
2018-03-20T01:46:19.031Z,-0.73
2018-03-20T01:47:19.064Z,-0.66
2018-03-20T01:48:19.109Z,-0.70
2018-03-20T01:49:19.143Z,-0.80
2018-03-20T01:50:19.219Z,-0.70
2018-03-20T01:51:19.220Z,-0.68
2018-03-20T01:52:19.261Z,-0.66
2018-03-20T01:53:19.302Z,-0.77
2018-03-20T01:54:19.337Z,-0.63
2018-03-20T01:55:19.411Z,-0.69
2018-03-20T01:56:19.412Z,-0.66
2018-03-20T01:57:19.453Z,-0.65
2018-03-20T01:58:19.496Z,-0.70
2018-03-20T01:59:19.531Z,-0.77
2018-03-20T02:00:19.591Z,-0.66
2018-03-20T02:01:19.630Z,-0.62
2018-03-20T02:02:19.646Z,-0.73
2018-03-20T02:03:19.684Z,-0.65
2018-03-20T02:04:19.723Z,-0.65
2018-03-20T02:05:19.763Z,-0.62
2018-03-20T02:06:19.824Z,-0.72
2018-03-20T02:07:19.840Z,-0.65
2018-03-20T02:08:19.879Z,-0.73
2018-03-20T02:09:19.920Z,-0.68
2018-03-20T02:10:19.959Z,-0.72
2018-03-20T02:11:20.028Z,-0.68
2018-03-20T02:12:20.032Z,-0.68
2018-03-20T02:13:20.071Z,-0.72
2018-03-20T02:14:20.114Z,-0.63
2018-03-20T02:15:20.145Z,-0.63
2018-03-20T02:16:20.227Z,-0.63
2018-03-20T02:17:20.226Z,-0.65
2018-03-20T02:18:20.266Z,-0.68
2018-03-20T02:19:20.300Z,-0.68
2018-03-20T02:20:20.341Z,-0.66
2018-03-20T02:21:20.418Z,-0.70
2018-03-20T02:22:20.423Z,-0.77
2018-03-20T02:23:20.457Z,-0.75
2018-03-20T02:24:20.502Z,-0.77
2018-03-20T02:25:20.537Z,-0.75
2018-03-20T02:26:20.605Z,-0.70
2018-03-20T02:27:20.611Z,-0.65
2018-03-20T02:28:20.649Z,-0.70
2018-03-20T02:29:20.688Z,-0.66
2018-03-20T02:30:20.729Z,-0.62
2018-03-20T02:31:20.809Z,-0.63
2018-03-20T02:32:20.805Z,-0.65
2018-03-20T02:33:20.851Z,-0.70
2018-03-20T02:34:20.882Z,-0.70
2018-03-20T02:35:20.928Z,-0.69
2018-03-20T02:36:20.993Z,-0.81
2018-03-20T02:37:20.999Z,-0.73
2018-03-20T02:38:21.038Z,-0.81
2018-03-20T02:39:21.076Z,-0.80
2018-03-20T02:40:21.114Z,-0.75
2018-03-20T02:41:21.186Z,-0.69
2018-03-20T02:42:21.194Z,-0.80
2018-03-20T02:43:21.231Z,-0.72
2018-03-20T02:44:21.269Z,-0.77
2018-03-20T02:45:21.318Z,-0.69
2018-03-20T02:46:21.385Z,-0.69
2018-03-20T02:47:21.388Z,-0.80
2018-03-20T02:48:21.426Z,-0.78
2018-03-20T02:49:21.463Z,-0.80
2018-03-20T02:50:21.501Z,-0.78
2018-03-20T02:51:21.577Z,-0.78
2018-03-20T02:52:21.583Z,-0.77
2018-03-20T02:53:21.618Z,-0.77
2018-03-20T02:54:21.680Z,-0.73
2018-03-20T02:55:21.698Z,-0.73
2018-03-20T02:56:21.767Z,-0.77
2018-03-20T02:57:21.772Z,-0.75
2018-03-20T02:58:21.810Z,-0.77
2018-03-20T02:59:21.849Z,-0.77
2018-03-20T03:00:21.888Z,-0.73
2018-03-20T03:01:21.959Z,-0.77
2018-03-20T03:02:21.966Z,-0.69
2018-03-20T03:03:22.006Z,-0.83
2018-03-20T03:04:22.043Z,-0.81
2018-03-20T03:05:22.079Z,-0.81
2018-03-20T03:06:22.161Z,-0.75
2018-03-20T03:07:22.157Z,-0.77
2018-03-20T03:08:22.197Z,-0.77
2018-03-20T03:09:22.243Z,-0.77
2018-03-20T03:10:22.276Z,-0.80
2018-03-20T03:11:22.334Z,-0.84
2018-03-20T03:12:22.397Z,-0.92
2018-03-20T03:13:22.415Z,-0.80
2018-03-20T03:14:22.428Z,-0.72
2018-03-20T03:15:22.468Z,-0.83
2018-03-20T03:16:22.505Z,-0.87
2018-03-20T03:17:22.553Z,-0.92
2018-03-20T03:18:22.613Z,-0.80
2018-03-20T03:19:22.621Z,-0.92
2018-03-20T03:20:22.658Z,-0.84
2018-03-20T03:21:22.698Z,-0.91
2018-03-20T03:22:22.735Z,-0.81
2018-03-20T03:23:22.808Z,-0.86
2018-03-20T03:24:22.812Z,-0.86
2018-03-20T03:25:22.851Z,-0.81
2018-03-20T03:26:22.898Z,-0.86
2018-03-20T03:27:22.929Z,-0.83
2018-03-20T03:28:22.989Z,-0.83
2018-03-20T03:29:23.004Z,-0.81
2018-03-20T03:30:23.067Z,-0.80
2018-03-20T03:31:23.080Z,-0.84
2018-03-20T03:32:23.121Z,-0.80
2018-03-20T03:33:23.163Z,-0.89
2018-03-20T03:34:23.222Z,-0.80
2018-03-20T03:35:23.260Z,-0.89
2018-03-20T03:36:23.275Z,-0.89
2018-03-20T03:37:23.311Z,-0.86
2018-03-20T03:38:23.351Z,-0.89
2018-03-20T03:39:23.412Z,-0.86
2018-03-20T03:40:23.429Z,-0.78
2018-03-20T03:41:23.466Z,-0.80
2018-03-20T03:42:23.529Z,-0.80
2018-03-20T03:43:23.544Z,-0.89
2018-03-20T03:44:23.584Z,-0.89
2018-03-20T03:45:23.636Z,-0.83
2018-03-20T03:46:23.786Z,-0.89
2018-03-20T03:47:23.696Z,-0.81
2018-03-20T03:48:23.737Z,-0.83
2018-03-20T03:49:24.436Z,-0.87
2018-03-20T03:50:23.812Z,-0.89
2018-03-20T03:51:23.873Z,-0.87
2018-03-20T03:52:23.934Z,-0.97
2018-03-20T03:53:23.927Z,-0.89
2018-03-20T03:54:23.965Z,-0.97
2018-03-20T03:55:24.005Z,-0.87
2018-03-20T03:56:24.044Z,-0.87
2018-03-20T03:57:24.113Z,-0.86
2018-03-20T03:58:24.118Z,-0.89
2018-03-20T03:59:24.156Z,-0.89
2018-03-20T04:00:24.194Z,-0.84
2018-03-20T04:01:24.290Z,-0.91
2018-03-20T04:02:24.305Z,-0.83
2018-03-20T04:03:24.309Z,-0.91
2018-03-20T04:04:24.348Z,-0.95
2018-03-20T04:05:24.396Z,-1.03
2018-03-20T04:06:24.428Z,-1.02
2018-03-20T04:07:24.493Z,-1.00
2018-03-20T04:08:25.231Z,-0.99
2018-03-20T04:09:24.540Z,-0.97
2018-03-20T04:10:24.579Z,-0.95
2018-03-20T04:11:24.617Z,-0.95
2018-03-20T04:12:24.681Z,-0.94
2018-03-20T04:13:24.692Z,-0.95
2018-03-20T04:14:24.761Z,-1.00
2018-03-20T04:15:24.781Z,-0.99
2018-03-20T04:16:24.812Z,-1.00
2018-03-20T04:17:24.855Z,-0.99
2018-03-20T04:18:24.887Z,-0.94
2018-03-20T04:19:24.959Z,-0.91
2018-03-20T04:20:24.963Z,-0.84
2018-03-20T04:21:25.001Z,-0.89
2018-03-20T04:22:25.041Z,-0.91
2018-03-20T04:23:25.076Z,-0.89
2018-03-20T04:24:25.162Z,-0.92
2018-03-20T04:25:25.155Z,-0.84
2018-03-20T04:26:25.193Z,-0.87
2018-03-20T04:27:25.231Z,-0.89
2018-03-20T04:28:25.273Z,-0.87
2018-03-20T04:29:25.338Z,-0.94
2018-03-20T04:30:25.348Z,-0.89
2018-03-20T04:31:25.382Z,-0.86
2018-03-20T04:32:25.423Z,-1.02
2018-03-20T04:33:25.462Z,-0.87
2018-03-20T04:34:25.531Z,-0.89
2018-03-20T04:35:25.538Z,-0.86
2018-03-20T04:36:25.576Z,-0.91
2018-03-20T04:37:25.615Z,-1.00
2018-03-20T04:38:25.654Z,-0.91
2018-03-20T04:39:25.731Z,-0.91
2018-03-20T04:40:25.729Z,-1.02
2018-03-20T04:41:25.768Z,-0.99
2018-03-20T04:42:25.807Z,-0.91
2018-03-20T04:43:25.843Z,-0.97
2018-03-20T04:44:25.905Z,-1.03
2018-03-20T04:45:25.952Z,-0.94
2018-03-20T04:46:25.959Z,-0.91
2018-03-20T04:47:25.997Z,-0.92
2018-03-20T04:48:26.037Z,-0.94
2018-03-20T04:49:26.076Z,-1.03
2018-03-20T04:50:26.135Z,-0.95
2018-03-20T04:51:26.152Z,-1.00
2018-03-20T04:52:26.193Z,-1.06
2018-03-20T04:53:26.228Z,-1.05
2018-03-20T04:54:26.266Z,-1.05
2018-03-20T04:55:26.327Z,-1.02
2018-03-20T04:56:26.363Z,-0.99
2018-03-20T04:57:26.382Z,-0.99
2018-03-20T04:58:26.419Z,-1.12
2018-03-20T04:59:26.457Z,-1.06
2018-03-20T05:00:26.496Z,-1.12
2018-03-20T05:01:26.557Z,-1.03
2018-03-20T05:02:26.572Z,-1.06
2018-03-20T05:03:26.610Z,-1.03
2018-03-20T05:04:26.649Z,-0.97
2018-03-20T05:05:26.686Z,-1.05
2018-03-20T05:06:26.754Z,-1.09
2018-03-20T05:07:26.764Z,-1.02
2018-03-20T05:08:26.800Z,-0.99
2018-03-20T05:09:26.840Z,-1.13
2018-03-20T05:10:26.877Z,-1.07
2018-03-20T05:11:26.941Z,-1.03
2018-03-20T05:12:26.977Z,-1.13
2018-03-20T05:13:26.993Z,-1.10
2018-03-20T05:14:27.038Z,-1.10
2018-03-20T05:15:27.072Z,-1.13
2018-03-20T05:16:27.108Z,-1.10
2018-03-20T05:17:27.170Z,-1.24
2018-03-20T05:18:27.255Z,-1.13
2018-03-20T05:19:27.223Z,-1.03
2018-03-20T05:20:27.262Z,-1.10
2018-03-20T05:21:27.301Z,-1.02
2018-03-20T05:22:27.337Z,-1.13
2018-03-20T05:23:27.398Z,-1.09
2018-03-20T05:24:27.413Z,-1.21
2018-03-20T05:25:27.454Z,-1.13
2018-03-20T05:26:27.493Z,-1.12
2018-03-20T05:27:27.528Z,-1.10
2018-03-20T05:28:27.600Z,-1.17
2018-03-20T05:29:27.612Z,-1.07
2018-03-20T05:30:27.643Z,-1.10
2018-03-20T05:31:27.680Z,-1.15
2018-03-20T05:32:27.726Z,-1.06
2018-03-20T05:33:27.787Z,-1.15
2018-03-20T05:34:27.799Z,-1.15
2018-03-20T05:35:27.833Z,-1.12
2018-03-20T05:36:27.871Z,-1.13
2018-03-20T05:37:27.911Z,-1.07
2018-03-20T05:38:28.006Z,-1.09
2018-03-20T05:39:27.984Z,-1.21
2018-03-20T05:40:28.021Z,-1.10
2018-03-20T05:41:28.060Z,-1.15
2018-03-20T05:42:28.104Z,-1.12
2018-03-20T05:43:28.160Z,-1.20
2018-03-20T05:44:28.174Z,-1.20
2018-03-20T05:45:28.242Z,-1.06
2018-03-20T05:46:28.253Z,-1.10
2018-03-20T05:47:28.290Z,-1.15
2018-03-20T05:48:28.332Z,-1.07
2018-03-20T05:49:28.396Z,-1.17
2018-03-20T05:50:28.428Z,-1.07
2018-03-20T05:51:28.443Z,-1.06
2018-03-20T05:52:28.481Z,-1.09
2018-03-20T05:53:28.520Z,-1.12
2018-03-20T05:54:28.580Z,-1.03
2018-03-20T05:55:28.619Z,-1.07
2018-03-20T05:56:28.635Z,-1.05
2018-03-20T05:57:28.673Z,-1.10
2018-03-20T05:58:28.710Z,-1.02
2018-03-20T05:59:28.771Z,-1.10
2018-03-20T06:00:28.788Z,-1.07
2018-03-20T06:01:28.849Z,-1.03
2018-03-20T06:02:28.866Z,-1.07
2018-03-20T06:03:28.901Z,-1.00
2018-03-20T06:04:28.938Z,-1.03
2018-03-20T06:05:28.978Z,-1.05
2018-03-20T06:06:29.038Z,-1.10
2018-03-20T06:07:29.054Z,-1.06
2018-03-20T06:08:29.091Z,-0.99
2018-03-20T06:09:29.131Z,-1.10
2018-03-20T06:10:29.168Z,-1.09
2018-03-20T06:11:29.241Z,-1.00
2018-03-20T06:12:29.246Z,-1.03
2018-03-20T06:13:29.285Z,-0.86
2018-03-20T06:14:29.324Z,-0.91
2018-03-20T06:15:29.364Z,-0.92
2018-03-20T06:16:29.443Z,-0.89
2018-03-20T06:17:29.447Z,-0.81
2018-03-20T06:18:29.477Z,-0.81
2018-03-20T06:19:29.513Z,-0.80
2018-03-20T06:20:29.553Z,-0.86
2018-03-20T06:21:29.624Z,-0.91
2018-03-20T06:22:29.630Z,-0.89
2018-03-20T06:23:29.668Z,-0.94
2018-03-20T06:24:29.706Z,-0.86
2018-03-20T06:25:29.744Z,-0.80
2018-03-20T06:26:29.818Z,-0.78
2018-03-20T06:27:29.823Z,-0.78
2018-03-20T06:28:29.863Z,-0.72
2018-03-20T06:29:29.898Z,-0.73
2018-03-20T06:30:29.940Z,-0.73
2018-03-20T06:31:29.997Z,-0.81
2018-03-20T06:32:30.013Z,-0.77
2018-03-20T06:33:30.052Z,-0.77
2018-03-20T06:34:30.112Z,-0.81
2018-03-20T06:35:30.129Z,-0.68
2018-03-20T06:36:30.171Z,-0.75
2018-03-20T06:37:30.230Z,-0.78
2018-03-20T06:38:30.332Z,-0.75
2018-03-20T06:39:30.284Z,-0.75
2018-03-20T06:40:30.324Z,-0.75
2018-03-20T06:41:30.362Z,-0.77
2018-03-20T06:42:30.424Z,-0.77
2018-03-20T06:43:30.442Z,-0.70
2018-03-20T06:44:30.475Z,-0.62
2018-03-20T06:45:30.539Z,-0.54
2018-03-20T06:46:30.578Z,-0.50
2018-03-20T06:47:30.593Z,-0.55
2018-03-20T06:48:30.653Z,-0.41
2018-03-20T06:49:30.669Z,-0.37
2018-03-20T06:50:30.716Z,-0.52
2018-03-20T06:51:30.745Z,-0.41
2018-03-20T06:52:30.786Z,-0.41
2018-03-20T06:53:30.847Z,-0.34
2018-03-20T06:54:30.866Z,-0.33
2018-03-20T06:55:30.902Z,-0.31
2018-03-20T06:56:30.943Z,-0.36
2018-03-20T06:57:31.003Z,-0.36
2018-03-20T06:58:31.020Z,-0.26
2018-03-20T06:59:31.099Z,-0.23
2018-03-20T07:00:31.100Z,-0.13
2018-03-20T07:01:31.136Z,-0.11
2018-03-20T07:02:31.198Z,-0.06
2018-03-20T07:03:31.243Z,-0.04
2018-03-20T07:04:32.207Z,0.00
2018-03-20T07:05:31.293Z,0.10
2018-03-20T07:06:31.333Z,0.03
2018-03-20T07:07:31.371Z,0.13
2018-03-20T07:08:31.446Z,0.21
2018-03-20T07:09:31.455Z,0.21
2018-03-20T07:10:31.488Z,0.24
2018-03-20T07:11:31.526Z,0.21
2018-03-20T07:12:31.569Z,0.23
2018-03-20T07:13:31.632Z,0.16
2018-03-20T07:14:31.669Z,0.16
2018-03-20T07:15:31.688Z,0.21
2018-03-20T07:16:31.725Z,0.18
2018-03-20T07:17:31.765Z,0.23
2018-03-20T07:18:31.814Z,0.20
2018-03-20T07:19:31.884Z,0.16
2018-03-20T07:20:31.882Z,0.39
2018-03-20T07:21:31.922Z,0.34
2018-03-20T07:22:31.966Z,0.28
2018-03-20T07:23:32.001Z,0.38
2018-03-20T07:24:32.079Z,0.36
2018-03-20T07:25:32.103Z,0.24
2018-03-20T07:26:32.122Z,0.20
2018-03-20T07:27:32.159Z,0.25
2018-03-20T07:28:32.245Z,0.25
2018-03-20T07:29:32.238Z,0.28
2018-03-20T07:30:32.312Z,0.45
2018-03-20T07:31:32.318Z,0.49
2018-03-20T07:32:32.359Z,0.49
2018-03-20T07:33:32.401Z,0.51
2018-03-20T07:34:32.483Z,0.62
2018-03-20T07:35:32.501Z,0.62
2018-03-20T07:36:32.517Z,0.68
2018-03-20T07:37:32.556Z,0.62
2018-03-20T07:38:32.596Z,0.65
2018-03-20T07:39:32.635Z,0.67
2018-03-20T07:40:32.710Z,0.71
2018-03-20T07:41:32.713Z,0.83
2018-03-20T07:42:32.756Z,0.79
2018-03-20T07:43:32.793Z,0.82
2018-03-20T07:44:32.837Z,0.78
2018-03-20T07:45:32.906Z,0.86
2018-03-20T07:46:32.919Z,0.82
2018-03-20T07:47:32.954Z,0.88
2018-03-20T07:48:32.993Z,0.90
2018-03-20T07:49:33.035Z,1.00
2018-03-20T07:50:33.100Z,1.03
2018-03-20T07:51:33.158Z,1.03
2018-03-20T07:52:33.157Z,1.06
2018-03-20T07:53:33.204Z,1.15
2018-03-20T07:54:33.233Z,1.07
2018-03-20T07:55:33.271Z,1.12
2018-03-20T07:56:33.344Z,1.04
2018-03-20T07:57:33.353Z,0.92
2018-03-20T07:58:33.397Z,1.04
2018-03-20T07:59:33.432Z,0.89
2018-03-20T08:00:33.476Z,1.01
2018-03-20T08:01:33.566Z,1.01
2018-03-20T08:02:33.557Z,1.08
2018-03-20T08:03:33.595Z,1.06
2018-03-20T08:04:33.647Z,1.01
2018-03-20T08:05:33.676Z,1.00
2018-03-20T08:06:33.744Z,1.04
2018-03-20T08:07:33.794Z,0.94
2018-03-20T08:08:33.795Z,1.06
2018-03-20T08:09:33.838Z,1.07
2018-03-20T08:10:33.881Z,1.06
2018-03-20T08:11:33.919Z,1.07
2018-03-20T08:12:33.982Z,1.08
2018-03-20T08:13:33.999Z,0.96
2018-03-20T08:14:34.038Z,1.00
2018-03-20T08:15:34.082Z,1.10
2018-03-20T08:16:34.120Z,1.03
2018-03-20T08:17:34.191Z,0.97
2018-03-20T08:18:34.202Z,0.96
2018-03-20T08:19:34.242Z,0.89
2018-03-20T08:20:34.285Z,0.98
2018-03-20T08:21:34.320Z,0.89
2018-03-20T08:22:34.386Z,0.88
2018-03-20T08:23:34.442Z,0.83
2018-03-20T08:24:34.440Z,0.90
2018-03-20T08:25:34.483Z,1.04
2018-03-20T08:26:34.524Z,1.08
2018-03-20T08:27:34.564Z,1.18
2018-03-20T08:28:34.653Z,1.33
2018-03-20T08:29:34.666Z,1.39
2018-03-20T08:30:34.688Z,1.43
2018-03-20T08:31:34.725Z,1.47
2018-03-20T08:32:34.764Z,1.62
2018-03-20T08:33:34.805Z,1.79
2018-03-20T08:34:34.879Z,1.98
2018-03-20T08:35:34.886Z,1.93
2018-03-20T08:36:34.925Z,1.90
2018-03-20T08:37:34.966Z,1.87
2018-03-20T08:38:35.008Z,1.80
2018-03-20T08:39:35.087Z,1.58
2018-03-20T08:40:35.089Z,1.65
2018-03-20T08:41:35.130Z,1.75
2018-03-20T08:42:35.174Z,1.68
2018-03-20T08:43:35.211Z,1.72
2018-03-20T08:44:35.276Z,1.60
2018-03-20T08:45:35.291Z,1.62
2018-03-20T08:46:35.358Z,1.71
2018-03-20T08:47:35.374Z,1.71
2018-03-20T08:48:35.416Z,1.78
2018-03-20T08:49:35.456Z,1.76
2018-03-20T08:50:35.496Z,1.83
2018-03-20T08:51:35.735Z,1.72
2018-03-20T08:52:35.583Z,1.89
2018-03-20T08:53:36.195Z,1.97
2018-03-20T08:54:35.662Z,2.09
2018-03-20T08:55:35.710Z,2.15
2018-03-20T08:56:35.779Z,2.53
2018-03-20T08:57:35.786Z,3.25
2018-03-20T08:58:35.828Z,3.88
2018-03-20T08:59:35.864Z,3.97
2018-03-20T09:00:35.914Z,3.71
2018-03-20T09:01:35.969Z,3.64
2018-03-20T09:02:47.658Z,3.61
2018-03-20T09:03:36.032Z,4.14
2018-03-20T09:04:36.071Z,4.26
2018-03-20T09:05:36.132Z,4.25
2018-03-20T09:06:36.184Z,4.46
2018-03-20T09:07:36.228Z,4.75
2018-03-20T09:08:36.242Z,4.84
2018-03-20T09:09:36.280Z,4.80
2018-03-20T09:10:36.323Z,4.24
2018-03-20T09:11:36.366Z,4.12
2018-03-20T09:12:36.466Z,4.55
2018-03-20T09:13:36.452Z,4.65
2018-03-20T09:14:36.496Z,4.50
2018-03-20T09:15:36.536Z,5.10
2018-03-20T09:16:36.586Z,5.66
2018-03-20T09:17:36.656Z,6.14
2018-03-20T09:18:36.667Z,6.35
2018-03-20T09:19:36.707Z,6.07
2018-03-20T09:20:36.754Z,5.86
2018-03-20T09:21:36.797Z,5.23
2018-03-20T09:22:36.874Z,5.01
2018-03-20T09:23:36.911Z,4.70
2018-03-20T09:24:36.930Z,4.65
2018-03-20T09:25:36.975Z,4.79
2018-03-20T09:26:37.020Z,5.17
2018-03-20T09:27:37.063Z,5.23
2018-03-20T09:28:37.136Z,5.30
2018-03-20T09:29:37.179Z,5.28
2018-03-20T09:30:37.197Z,5.78
2018-03-20T09:31:37.240Z,5.86
2018-03-20T09:32:37.285Z,6.29
2018-03-20T09:33:37.352Z,6.32
2018-03-20T09:34:37.407Z,6.38
2018-03-20T09:35:37.526Z,6.11
2018-03-20T09:36:37.465Z,5.74
2018-03-20T09:37:37.514Z,6.16
2018-03-20T09:38:37.563Z,6.35
2018-03-20T09:39:37.602Z,6.16
2018-03-20T09:40:37.686Z,5.50
2018-03-20T09:41:37.694Z,5.19
2018-03-20T09:42:37.742Z,5.04
2018-03-20T09:43:37.783Z,4.59
2018-03-20T09:44:37.828Z,4.75
2018-03-20T09:45:37.898Z,4.76
2018-03-20T09:46:37.924Z,4.76
2018-03-20T09:47:37.967Z,4.84
2018-03-20T09:48:38.012Z,4.80
2018-03-20T09:49:38.056Z,4.37
2018-03-20T09:50:38.125Z,4.34
2018-03-20T09:51:38.174Z,4.37
2018-03-20T09:52:38.190Z,4.26
2018-03-20T09:53:38.237Z,3.98
2018-03-20T09:54:38.283Z,4.00
2018-03-20T09:55:38.324Z,3.83
2018-03-20T09:56:38.398Z,3.70
2018-03-20T09:57:38.413Z,3.68
2018-03-20T09:58:38.460Z,3.75
2018-03-20T09:59:38.502Z,3.83
2018-03-20T10:00:38.547Z,3.97
2018-03-20T10:01:38.626Z,4.14
2018-03-20T10:02:38.635Z,4.25
2018-03-20T10:03:38.681Z,4.43
2018-03-20T10:04:38.724Z,4.46
2018-03-20T10:05:38.767Z,4.64
2018-03-20T10:06:38.834Z,4.73
2018-03-20T10:07:38.855Z,4.92
2018-03-20T10:08:38.909Z,5.05
2018-03-20T10:09:38.944Z,5.10
2018-03-20T10:10:38.993Z,5.28
2018-03-20T10:11:39.054Z,5.40
2018-03-20T10:12:39.099Z,5.49
2018-03-20T10:13:39.129Z,5.22
2018-03-20T10:14:39.166Z,5.04
2018-03-20T10:15:39.215Z,4.91
2018-03-20T10:16:39.253Z,4.80
2018-03-20T10:17:39.337Z,4.43
2018-03-20T10:18:39.341Z,4.47
2018-03-20T10:19:39.386Z,4.37
2018-03-20T10:20:39.432Z,4.10
2018-03-20T10:21:39.474Z,3.94
2018-03-20T10:22:39.548Z,3.72
2018-03-20T10:23:39.598Z,3.50
2018-03-20T10:24:39.611Z,3.40
2018-03-20T10:25:39.653Z,3.25
2018-03-20T10:26:39.697Z,3.30
2018-03-20T10:27:39.762Z,3.21
2018-03-20T10:28:39.812Z,3.02
2018-03-20T10:29:39.829Z,2.94
2018-03-20T10:30:39.889Z,2.79
2018-03-20T10:31:39.915Z,2.77
2018-03-20T10:32:39.996Z,2.79
2018-03-20T10:33:39.998Z,2.77
2018-03-20T10:34:40.044Z,2.76
2018-03-20T10:35:40.086Z,2.85
2018-03-20T10:36:40.126Z,2.76
2018-03-20T10:37:40.203Z,2.66
2018-03-20T10:38:40.213Z,2.71
2018-03-20T10:39:40.259Z,2.71
2018-03-20T10:40:40.317Z,2.85
2018-03-20T10:41:40.345Z,2.71
2018-03-20T10:42:40.418Z,2.77
2018-03-20T10:43:40.428Z,2.76
2018-03-20T10:44:40.472Z,2.74
2018-03-20T10:45:40.518Z,2.82
2018-03-20T10:46:40.555Z,2.69
2018-03-20T10:47:40.635Z,2.63
2018-03-20T10:48:40.641Z,2.64
2018-03-20T10:49:40.680Z,2.66
2018-03-20T10:50:40.744Z,2.61
2018-03-20T10:51:40.765Z,2.71
2018-03-20T10:52:40.841Z,2.76
2018-03-20T10:53:40.849Z,2.76
2018-03-20T10:54:40.894Z,2.94
2018-03-20T10:55:40.935Z,2.89
2018-03-20T10:56:40.981Z,2.76
2018-03-20T10:57:41.069Z,2.95
2018-03-20T10:58:41.064Z,2.70
2018-03-20T10:59:41.125Z,2.76
2018-03-20T11:00:41.146Z,2.69
2018-03-20T11:01:41.189Z,2.58
2018-03-20T11:02:41.256Z,2.71
2018-03-20T11:03:41.275Z,2.77
2018-03-20T11:04:41.315Z,2.94
2018-03-20T11:05:41.360Z,3.02
2018-03-20T11:06:41.402Z,3.16
2018-03-20T11:07:41.466Z,3.15
2018-03-20T11:08:41.515Z,3.07
2018-03-20T11:09:41.527Z,3.03
2018-03-20T11:10:41.572Z,3.10
2018-03-20T11:11:41.614Z,2.92
2018-03-20T11:12:41.654Z,3.15
2018-03-20T11:13:41.729Z,3.10
2018-03-20T11:14:41.741Z,3.23
2018-03-20T11:15:41.789Z,3.20
2018-03-20T11:16:41.827Z,3.28
2018-03-20T11:17:41.866Z,3.34
2018-03-20T11:18:41.940Z,3.40
2018-03-20T11:19:41.955Z,3.52
2018-03-20T11:20:41.997Z,3.52
2018-03-20T11:21:42.038Z,3.31
2018-03-20T11:22:42.083Z,3.43
2018-03-20T11:23:42.164Z,3.36
2018-03-20T11:24:42.204Z,3.49
2018-03-20T11:25:42.208Z,3.50
2018-03-20T11:26:42.255Z,3.76
2018-03-20T11:27:42.296Z,3.79
2018-03-20T11:28:42.362Z,3.82
2018-03-20T11:29:42.411Z,3.90
2018-03-20T11:30:42.423Z,4.21
2018-03-20T11:31:42.473Z,4.36
2018-03-20T11:32:43.235Z,4.34
2018-03-20T11:33:42.551Z,4.52
2018-03-20T11:34:42.619Z,4.51
2018-03-20T11:35:42.638Z,4.55
2018-03-20T11:36:42.715Z,4.76
2018-03-20T11:37:42.725Z,4.83
2018-03-20T11:38:42.770Z,4.55
2018-03-20T11:39:42.815Z,4.40
2018-03-20T11:40:42.881Z,4.34
2018-03-20T11:41:42.905Z,4.08
2018-03-20T11:42:42.950Z,3.86
2018-03-20T11:43:42.991Z,3.97
2018-03-20T11:44:43.038Z,3.94
2018-03-20T11:45:43.109Z,3.97
2018-03-20T11:46:43.126Z,4.21
2018-03-20T11:47:43.169Z,4.34
2018-03-20T11:48:43.215Z,4.40
2018-03-20T11:49:43.257Z,4.37
2018-03-20T11:50:43.330Z,4.40
2018-03-20T11:51:43.342Z,4.26
2018-03-20T11:52:43.388Z,4.25
2018-03-20T11:53:43.431Z,4.12
2018-03-20T11:54:43.477Z,4.26
2018-03-20T11:55:43.544Z,4.26
2018-03-20T11:56:43.561Z,4.33
2018-03-20T11:57:43.607Z,4.57
2018-03-20T11:58:43.677Z,4.67
2018-03-20T11:59:43.699Z,4.62
2018-03-20T12:00:43.740Z,4.50
2018-03-20T12:01:43.814Z,4.29
2018-03-20T12:02:43.831Z,4.25
2018-03-20T12:03:43.898Z,4.22
2018-03-20T12:04:43.915Z,4.37
2018-03-20T12:05:43.962Z,4.25
2018-03-20T12:06:44.005Z,4.15
2018-03-20T12:07:44.057Z,4.07
2018-03-20T12:08:44.116Z,4.18
2018-03-20T12:09:44.138Z,4.36
2018-03-20T12:10:44.183Z,4.36
2018-03-20T12:11:44.224Z,4.24
2018-03-20T12:12:44.311Z,4.18
2018-03-20T12:13:44.314Z,4.14
2018-03-20T12:14:44.358Z,4.03
2018-03-20T12:15:44.402Z,4.01
2018-03-20T12:16:44.448Z,4.00
2018-03-20T12:17:44.526Z,3.97
2018-03-20T12:18:44.534Z,3.98
2018-03-20T12:19:44.579Z,3.88
2018-03-20T12:20:44.625Z,3.75
2018-03-20T12:21:44.666Z,3.70
2018-03-20T12:22:44.741Z,3.79
2018-03-20T12:23:44.758Z,3.58
2018-03-20T12:24:44.797Z,3.24
2018-03-20T12:25:44.840Z,3.18
2018-03-20T12:26:44.884Z,3.20
2018-03-20T12:27:44.952Z,3.10
2018-03-20T12:28:44.997Z,3.12
2018-03-20T12:29:45.021Z,3.10
2018-03-20T12:30:45.061Z,3.27
2018-03-20T12:31:45.100Z,3.31
2018-03-20T12:32:45.142Z,3.34
2018-03-20T12:33:45.218Z,3.46
2018-03-20T12:34:45.230Z,3.57
2018-03-20T12:35:45.270Z,3.47
2018-03-20T12:36:45.317Z,3.49
2018-03-20T12:37:45.381Z,3.46
2018-03-20T12:38:45.503Z,3.49
2018-03-20T12:39:45.446Z,3.44
2018-03-20T12:40:45.489Z,3.57
2018-03-20T12:41:45.529Z,3.65
2018-03-20T12:42:45.572Z,3.78
2018-03-20T12:43:45.646Z,4.00
2018-03-20T12:44:45.657Z,4.01
2018-03-20T12:45:45.705Z,4.06
2018-03-20T12:46:45.801Z,4.36
2018-03-20T12:47:45.787Z,4.95
2018-03-20T12:48:45.854Z,5.45
2018-03-20T12:49:45.879Z,5.78
2018-03-20T12:50:45.943Z,5.88
2018-03-20T12:51:45.964Z,6.01
2018-03-20T12:52:46.009Z,6.19
2018-03-20T12:53:46.055Z,6.32
2018-03-20T12:54:46.100Z,6.53
2018-03-20T12:55:46.171Z,6.43
2018-03-20T12:56:46.190Z,6.66
2018-03-20T12:57:46.289Z,6.86
2018-03-20T12:58:46.285Z,6.95
2018-03-20T12:59:46.332Z,7.15
2018-03-20T13:00:46.404Z,7.27
2018-03-20T13:01:46.426Z,7.16
2018-03-20T13:02:46.480Z,6.95
2018-03-20T13:03:46.524Z,6.97
2018-03-20T13:04:46.589Z,7.27